Relevés horaires Bierset (Belgique)


Relevés horaires à Bierset - Samedi 19 Janv. 2019
Heure UTC1 Température [°C] Vent [km/h] Hum. [%] Pres.4 [hPa] Visi. [Km] Nébu. [octa] Préc.5 [mm] Cond.
2m. Res. Ros. Dir.2 Vit. Moy. Raf.3
23:00 -1.6 -5 -5.9 SE 9.3 9.3 14.8 72 1013.6(-0.2/3h) 30 0/8 -- --
22:00 -1.5 -4.3 -5.6 SE 7.4 7.4 14.8 74 1013.5(0.0/3h) 30 0/8 -- --
21:00 -1.3 -3.3 -6.1 SE 5.6 7.4 16.7 70 1013.4(-0.1/3h) 30 0/8 -- --
20:00 -0.7 -3.4 -5.9 ESE 7.4 7.4 9.3 68 1013.3(-0.1/3h) 30 0/8 -- --
19:00 -0.7 -0.7 -5.3 ESE 3.7 3.7 16.7 71 1013.4(-0.1/3h) 30 2/8 -- --
18:00 0.2 0.2 -5.2 ESE 3.7 9.3 16.7 67 1013.4(-0.3/3h) 25 2/8 0/12h
--
17:00 0.9 -0.8 -5.1 ESE 5.6 7.4 14.8 64 1013.2(-0.9/3h) 25 2/8 -- --
16:00 2.0 -0.2 -5.9 SE 7.4 9.3 16.7 56 1013.3(-1.5/3h) 25 2/8 -- --
15:00 2.8 0.7 -6.5 SE 7.4 9.3 16.7 50 1013.5(-1.8/3h) 25 2/8 -- --
14:00 3.1 1.1 -5.2 SE 7.4 7.4 11.1 54 1014(-2.1/3h) 25 2/8 -- --
13:00 2.9 0.8 -5.4 SE 7.4 9.3 16.7 54 1014.8(-1.7/3h) 25 2/8 -- --
12:00 2.2 0 -5.1 SE 7.4 9.3 16.7 58 1015.4(-1.3/3h) 25 2/8 0/6h
--
11:00 1.3 -1.6 -4.3 SE 9.3 9.3 13.0 66 1016.2(-0.5/3h) 25 1/8 -- --
10:00 0.1 -2.4 -4.6 SE 7.4 7.4 16.7 71 1016.7(0.1/3h) 25 1/8 -- --
10:00 0.1 -2.4 -4.6 SE 7.4 7.4 16.7 71 1016.7(0.1/3h) 25 1/8 -- --
09:00 -1.3 -1.3 -5.1 SE 3.7 7.4 16.7 75 1017(-0.2/3h) 25 1/8 -- --
09:00 -1.3 -1.3 -5.1 SE 3.7 7.4 16.7 75 1017(-0.2/3h) 25 1/8 -- --
08:00 -1.5 -3.6 -5.1 SE 5.6 7.4 14.8 76 1016.9(-0.5/3h) 25 2/8 -- --
08:00 -1.5 -3.6 -5.1 SE 5.6 7.4 14.8 76 1016.9(-0.5/3h) 25 2/8 -- --
07:00 -1.6 -3.7 -4.9 SE 5.6 7.4 14.8 78 1016.9(-1.0/3h) 25 1/8 -- --
06:00 -1.6 -3.7 -4.6 SE 5.6 7.4 16.7 80 1017.2(-1.2/3h) 25 1/8 0/12h
--
05:00 -1.5 -3.6 -4.6 SE 5.6 5.6 16.7 79 1017.5(-1.3/3h) 25 1/8 -- --
04:00 -1.4 -3.5 -4.7 SE 5.6 7.4 9.3 78 1017.9(-1.2/3h) 25 1/8 -- --
03:00 -1.5 -3.6 -4.7 SE 5.6 7.4 14.8 79 1018.4(-1.1/3h) 25 2/8 -- --

1 Coordinated Universal Time. Actuellement il est 05:00 locale et 03:00 UTC.

2 Le vent souffle depuis la direction indiquée vers la direction oposée.

3 Les rafales max. sont disponible 40 min après l'heure du relevé.

4 Pour les stations d'altitude (plus de 600m) le géopotentiel du niveau le plus proche de la pression obligatoire est indiqué.

5 Les stations disposant d'un diffuseur peuvent indiquer "trace". Cela signifie que des précipitations ont touchés le sol mais que la quantité est inférieure à 0.1 mm.

Récapitulatif de la journée
Température [°C] Vent [km/h] Ensoleillement4 [h] Precipitations totale5 [mm] Pression [Hpa]
Min1 Max.2 Moy.3 Max. Min Max.
-1.6 3.2 7.7 16.7 0 h 0 min 0 1013.2 1018.4

1 Température minimale relevée entre 18:00 UTC la veille et 18:00 UTC le jour donné.

2 Température maximale relevée entre 06:00 UTC le jour donné et 06:00 UTC le lendemain.

3 Vent moyen de la journée basé sur les relevés horaires.

4 Ensoleillement en heures relevé entre 06:00 UTC la veille et 06:00 UTC le jour donné.

5 Précipitations totales tombées entre 06:00 UTC la jour donné et 06:00 UTC le lendemain.

Graphiques horaires